Time;durP1;ratioP1;P1;durP2;ratioP2;P2;SDS_P1;SDS_P2;PMS_P1;PMS_P2;Temp;Humidity;BMP_temperature;BMP_pressure;BME280_temperature;BME280_humidity;BME280_pressure;Samples;Min_cycle;Max_cycle;Signal;HPM_P1;HPM_P2
2021/12/21 00:00:28;;;;;;;0.82;0.82;;;;;;;-14.61;57.97;97797.72;5155221;27;20066;-55
2021/12/21 00:02:54;;;;;;;2.15;1.50;;;;;;;-14.49;58.71;97796.75;5153971;27;20098;-58
2021/12/21 00:05:24;;;;;;;5.18;1.63;;;;;;;-14.38;58.90;97790.81;5154319;27;20042;-58
2021/12/21 00:07:52;;;;;;;2.88;1.55;;;;;;;-14.47;59.01;97799.97;5155111;27;20051;-56
2021/12/21 00:10:19;;;;;;;7.05;3.13;;;;;;;-14.35;58.30;97802.47;5155446;27;20480;-60
2021/12/21 00:15:39;;;;;;;1.00;1.00;;;;;;;-14.30;58.55;97801.19;5154717;27;20191;-57
2021/12/21 00:20:59;;;;;;;1.52;1.13;;;;;;;-14.29;58.79;97802.81;5155426;27;20043;-58
2021/12/21 00:23:36;;;;;;;1.40;1.27;;;;;;;-14.08;58.15;97807.16;5153565;27;20512;-57
2021/12/21 00:26:08;;;;;;;1.55;1.35;;;;;;;-14.04;58.17;97801.69;5155108;27;20042;-58
2021/12/21 00:28:41;;;;;;;5.88;1.33;;;;;;;-14.01;58.18;97798.91;5154950;27;20066;-56
2021/12/21 00:31:07;;;;;;;2.70;1.70;;;;;;;-13.98;58.98;97798.66;5154767;27;20057;-56
2021/12/21 00:33:32;;;;;;;3.75;1.58;;;;;;;-13.86;58.39;97801.16;5153463;27;20125;-60
2021/12/21 00:35:58;;;;;;;2.10;1.23;;;;;;;-13.97;57.75;97802.00;5155070;27;20041;-57
2021/12/21 00:38:24;;;;;;;1.55;1.00;;;;;;;-14.02;58.00;97799.03;5154374;27;20042;-58
2021/12/21 00:40:50;;;;;;;1.42;1.27;;;;;;;-14.02;58.27;97793.94;5154691;27;20042;-58
2021/12/21 00:43:16;;;;;;;1.77;1.48;;;;;;;-14.04;58.12;97800.88;5154495;27;20527;-57
2021/12/21 00:45:42;;;;;;;2.35;1.60;;;;;;;-14.09;57.51;97803.78;5153211;27;20128;-55
2021/12/21 00:48:07;;;;;;;1.55;1.42;;;;;;;-14.30;57.71;97802.94;5153031;27;20050;-56
2021/12/21 00:50:33;;;;;;;1.42;1.33;;;;;;;-14.29;58.94;97800.28;5152758;27;20111;-56
2021/12/21 00:52:59;;;;;;;1.95;1.45;;;;;;;-14.20;57.67;97796.22;5154223;27;20614;-57
2021/12/21 00:55:25;;;;;;;2.15;1.83;;;;;;;-14.20;57.50;97802.09;5154042;27;20066;-56
2021/12/21 00:57:51;;;;;;;1.70;1.60;;;;;;;-14.18;57.79;97809.59;5153990;27;20051;-57
2021/12/21 01:00:18;;;;;;;1.40;1.27;;;;;;;-14.37;58.04;97807.69;5152854;27;20125;-58
2021/12/21 01:02:44;;;;;;;1.45;1.35;;;;;;;-14.31;57.58;97814.06;5152347;27;20034;-57
2021/12/21 01:05:35;;;;;;;5.15;2.08;;;;;;;-14.36;57.27;97811.84;5154518;27;20039;-57
2021/12/21 01:08:04;;;;;;;1.70;1.42;;;;;;;-14.29;58.19;97805.38;5153318;27;20415;-57
2021/12/21 01:10:50;;;;;;;1.98;1.67;;;;;;;-14.30;58.10;97818.19;5152768;27;20035;-57
2021/12/21 01:18:23;;;;;;;1.17;1.15;;;;;;;-14.26;58.17;97812.78;5153452;27;20384;-59
2021/12/21 01:31:42;;;;;;;1.40;1.30;;;;;;;-14.30;57.48;97819.00;5153586;27;20066;-58
2021/12/21 01:36:45;;;;;;;2.42;1.70;;;;;;;-14.28;58.49;97819.72;5151853;27;20042;-57
2021/12/21 01:49:49;;;;;;;1.85;1.55;;;;;;;-14.39;57.77;97829.09;5153068;27;20046;-57
2021/12/21 01:52:22;;;;;;;1.30;1.20;;;;;;;-14.40;57.16;97820.66;5153124;27;20043;-58
2021/12/21 01:54:48;;;;;;;1.15;1.08;;;;;;;-14.47;57.66;97829.69;5152945;27;20034;-58
2021/12/21 01:57:15;;;;;;;2.38;1.33;;;;;;;-14.48;57.00;97833.16;5151253;27;20119;-58
2021/12/21 01:59:41;;;;;;;2.53;1.65;;;;;;;-14.49;56.88;97841.75;5151432;27;20122;-57
2021/12/21 02:02:12;;;;;;;1.63;1.45;;;;;;;-14.43;57.71;97841.25;5152484;27;20106;-56
2021/12/21 02:04:39;;;;;;;0.90;0.90;;;;;;;-14.45;56.58;97835.47;5153007;27;20047;-58
2021/12/21 02:07:05;;;;;;;1.55;1.45;;;;;;;-14.37;56.68;97843.34;5153112;27;20047;-56
2021/12/21 02:09:38;;;;;;;3.17;1.63;;;;;;;-14.29;57.44;97842.72;5153031;27;20038;-57
2021/12/21 02:12:05;;;;;;;1.77;1.48;;;;;;;-14.32;56.80;97842.97;5151661;27;20054;-57
2021/12/21 02:14:32;;;;;;;1.27;1.20;;;;;;;-14.58;57.19;97848.38;5130417;27;20050;-56
2021/12/21 02:17:23;;;;;;;1.85;1.60;;;;;;;-14.75;57.15;97851.38;5131978;27;20039;-56
2021/12/21 02:20:03;;;;;;;2.15;1.50;;;;;;;-14.82;58.23;97851.06;5132150;27;20494;-57
2021/12/21 02:22:32;;;;;;;1.27;1.20;;;;;;;-14.77;58.36;97850.69;5136846;27;20045;-57
2021/12/21 02:25:30;;;;;;;2.03;1.65;;;;;;;-14.80;58.18;97856.00;5152998;27;20039;-58
2021/12/21 02:30:33;;;;;;;1.58;1.17;;;;;;;-14.69;58.16;97858.56;5130397;27;20046;-58
2021/12/21 02:32:58;;;;;;;2.88;1.90;;;;;;;-14.63;58.39;97860.63;5152228;27;20050;-57
2021/12/21 02:35:24;;;;;;;5.50;1.30;;;;;;;-14.72;57.81;97862.13;5152197;27;20039;-59
2021/12/21 02:37:50;;;;;;;1.50;1.40;;;;;;;-14.71;57.94;97860.38;5152906;27;20043;-57
2021/12/21 02:40:16;;;;;;;1.98;1.77;;;;;;;-14.71;57.56;97870.56;5157052;27;20396;-56
2021/12/21 02:42:41;;;;;;;2.22;1.80;;;;;;;-14.73;57.19;97868.16;5156307;27;20051;-59
2021/12/21 02:45:07;;;;;;;3.08;1.20;;;;;;;-14.75;57.49;97874.28;5157069;27;20049;-57
2021/12/21 02:47:33;;;;;;;2.08;1.60;;;;;;;-14.83;57.55;97871.50;5155454;27;20416;-59
2021/12/21 02:49:59;;;;;;;2.50;2.25;;;;;;;-14.84;57.71;97865.59;5155109;27;20039;-57
2021/12/21 02:52:25;;;;;;;1.60;1.50;;;;;;;-14.82;57.90;97873.94;5156523;27;20043;-59
2021/12/21 02:54:51;;;;;;;2.60;1.65;;;;;;;-14.84;58.11;97873.22;5155292;27;20045;-55
2021/12/21 02:57:17;;;;;;;1.85;1.58;;;;;;;-14.78;58.50;97882.94;5156184;27;20388;-57
2021/12/21 02:59:43;;;;;;;1.55;1.45;;;;;;;-14.64;57.29;97884.47;5156830;27;20046;-58
2021/12/21 03:08:57;;;;;;;1.40;1.30;;;;;;;-14.70;57.53;97885.72;5156002;27;20094;-59
2021/12/21 03:18:47;;;;;;;4.05;1.90;;;;;;;-14.56;57.75;97899.13;5156047;27;20090;-58
2021/12/21 03:25:27;;;;;;;2.90;2.13;;;;;;;-14.81;58.21;97898.44;5156215;27;20095;-58
2021/12/21 03:27:54;;;;;;;2.17;1.63;;;;;;;-14.84;57.86;97906.28;5155872;27;20102;-57
2021/12/21 03:30:20;;;;;;;2.22;1.88;;;;;;;-14.75;58.59;97912.44;5156174;27;20130;-57
2021/12/21 03:32:45;;;;;;;2.60;2.22;;;;;;;-14.59;58.64;97910.34;5155640;27;20419;-58
2021/12/21 03:35:12;;;;;;;1.40;1.30;;;;;;;-14.61;57.41;97911.41;5155638;27;20042;-57
2021/12/21 03:37:38;;;;;;;3.03;1.65;;;;;;;-14.65;58.55;97901.44;5155910;27;20042;-58
2021/12/21 03:40:04;;;;;;;2.60;1.70;;;;;;;-14.55;57.31;97903.31;5155925;27;20037;-58
2021/12/21 03:42:30;;;;;;;4.60;2.90;;;;;;;-14.45;57.35;97906.72;5155591;27;20096;-56
2021/12/21 03:44:56;;;;;;;4.18;2.72;;;;;;;-14.45;58.23;97909.28;5155757;27;20039;-56
2021/12/21 03:47:23;;;;;;;3.47;2.30;;;;;;;-14.40;58.31;97909.75;5154325;27;20068;-58
2021/12/21 03:49:53;;;;;;;7.55;4.00;;;;;;;-14.30;58.15;97907.28;5154416;27;20419;-56
2021/12/21 03:52:22;;;;;;;6.40;3.53;;;;;;;-14.29;57.30;97909.72;5154300;27;20051;-58
2021/12/21 03:54:50;;;;;;;7.38;3.53;;;;;;;-14.05;58.39;97913.88;5154901;27;20066;-57
2021/12/21 03:57:17;;;;;;;8.52;4.53;;;;;;;-14.06;57.71;97919.88;5155558;27;20074;-57
2021/12/21 03:59:44;;;;;;;8.93;4.93;;;;;;;-14.14;56.43;97917.13;5155394;27;20129;-57
2021/12/21 04:02:12;;;;;;;4.65;3.42;;;;;;;-14.31;57.13;97913.31;5155379;27;20388;-58
2021/12/21 04:04:38;;;;;;;7.60;3.60;;;;;;;-14.13;56.46;97918.72;5156153;27;20035;-57
2021/12/21 04:07:05;;;;;;;7.88;4.38;;;;;;;-14.22;56.32;97920.25;5155298;27;20457;-57
2021/12/21 04:09:30;;;;;;;4.82;3.75;;;;;;;-14.31;56.49;97921.75;5155551;27;20519;-58
2021/12/21 04:11:56;;;;;;;7.45;4.40;;;;;;;-14.38;56.39;97914.69;5155598;27;20051;-58
2021/12/21 04:14:22;;;;;;;4.32;3.63;;;;;;;-14.24;57.16;97914.47;5155173;27;20518;-57
2021/12/21 04:16:49;;;;;;;6.35;3.20;;;;;;;-14.46;55.88;97926.28;5155019;27;20050;-57
2021/12/21 04:19:15;;;;;;;9.55;4.80;;;;;;;-14.57;56.76;97933.13;5155194;27;20151;-57
2021/12/21 04:21:41;;;;;;;8.00;4.07;;;;;;;-14.49;57.56;97930.81;5154121;27;20361;-57
2021/12/21 04:24:07;;;;;;;4.93;3.70;;;;;;;-14.44;56.78;97929.53;5155274;27;20587;-58
2021/12/21 04:26:33;;;;;;;4.88;3.75;;;;;;;-14.37;56.89;97934.16;5155443;27;20042;-57
2021/12/21 04:28:58;;;;;;;4.72;3.20;;;;;;;-14.49;56.05;97929.06;5155378;27;20385;-58
2021/12/21 04:31:24;;;;;;;6.90;3.60;;;;;;;-14.41;56.39;97928.47;5155153;27;20054;-57
2021/12/21 04:33:50;;;;;;;6.22;3.15;;;;;;;-14.46;57.27;97931.38;5154700;27;20415;-58
2021/12/21 04:36:16;;;;;;;9.50;4.25;;;;;;;-14.36;56.95;97933.22;5154789;27;20037;-58
2021/12/21 04:38:46;;;;;;;5.40;3.13;;;;;;;-14.35;56.07;97945.00;5154554;27;20512;-57
2021/12/21 04:41:22;;;;;;;;;;;;;;;-14.39;56.71;97934.25;5155427;27;20066;-58
2021/12/21 04:43:47;;;;;;;4.38;2.63;;;;;;;-14.44;57.26;97942.25;5154703;27;20540;-59
2021/12/21 04:46:13;;;;;;;5.45;2.67;;;;;;;-14.49;56.41;97941.78;5154507;27;20046;-59
2021/12/21 04:48:39;;;;;;;3.67;1.98;;;;;;;-14.68;57.51;97944.09;5136195;27;20495;-59
2021/12/21 04:51:05;;;;;;;2.67;2.45;;;;;;;-14.67;57.63;97940.66;5152818;27;20134;-59
2021/12/21 04:53:31;;;;;;;6.28;3.40;;;;;;;-14.56;57.26;97940.63;5154563;27;20091;-59
2021/12/21 04:55:57;;;;;;;8.30;3.10;;;;;;;-14.45;57.64;97944.91;5153196;27;20035;-57
2021/12/21 04:58:23;;;;;;;4.25;2.65;;;;;;;-14.31;57.06;97946.41;5154473;27;20059;-57
2021/12/21 05:00:49;;;;;;;2.10;1.80;;;;;;;-14.44;56.45;97946.50;5131968;27;20111;-60
2021/12/21 05:03:15;;;;;;;3.28;2.03;;;;;;;-14.35;56.76;97950.09;5133540;27;20047;-57
2021/12/21 05:05:41;;;;;;;6.88;2.40;;;;;;;-14.47;57.38;97956.91;5134072;27;20096;-60
2021/12/21 05:10:53;;;;;;;5.97;2.70;;;;;;;-14.45;57.99;97953.34;5139565;27;20031;-58
2021/12/21 05:13:21;;;;;;;2.88;2.22;;;;;;;-14.67;57.79;97959.25;5154216;27;20050;-59
2021/12/21 05:15:48;;;;;;;6.05;2.47;;;;;;;-14.72;58.17;97958.78;5152829;27;20043;-55
2021/12/21 05:18:15;;;;;;;3.95;2.30;;;;;;;-14.61;57.84;97963.09;5118693;27;20035;-55
2021/12/21 05:20:42;;;;;;;4.70;2.88;;;;;;;-14.50;57.41;97975.78;5148378;27;20483;-57
2021/12/21 05:23:08;;;;;;;2.33;1.73;;;;;;;-14.57;56.75;97966.22;5147685;27;20038;-57
2021/12/21 05:25:35;;;;;;;2.30;1.50;;;;;;;-14.89;56.40;97980.38;5151338;27;20041;-56
2021/12/21 05:28:02;;;;;;;2.90;1.70;;;;;;;-15.13;56.05;97965.16;5149793;27;20043;-54
2021/12/21 05:30:28;;;;;;;3.38;2.00;;;;;;;-15.05;56.77;97964.63;5148102;27;20035;-57
2021/12/21 05:32:55;;;;;;;3.35;2.38;;;;;;;-15.10;56.97;97974.31;5149146;27;20043;-57
2021/12/21 05:35:22;;;;;;;4.53;2.30;;;;;;;-14.98;57.00;97973.41;5150885;27;20122;-56
2021/12/21 05:37:52;;;;;;;2.85;1.95;;;;;;;-14.83;56.50;97989.28;5149694;27;20569;-53
2021/12/21 05:40:19;;;;;;;1.90;1.80;;;;;;;-14.83;56.00;97989.28;5151175;27;20030;-57
2021/12/21 05:42:46;;;;;;;4.20;1.85;;;;;;;-14.89;56.31;97997.38;5152389;27;20397;-57
2021/12/21 05:45:15;;;;;;;4.07;2.38;;;;;;;-14.90;55.97;97986.38;5150061;27;20039;-56
2021/12/21 05:47:41;;;;;;;2.08;1.75;;;;;;;-14.84;56.19;97997.03;5150686;27;20047;-59
2021/12/21 05:50:11;;;;;;;2.47;1.70;;;;;;;-14.89;56.06;97999.91;5150762;27;20385;-57
2021/12/21 05:52:37;;;;;;;6.03;2.10;;;;;;;-14.88;55.57;97993.88;5150239;27;20042;-58
2021/12/21 05:55:05;;;;;;;4.55;2.25;;;;;;;-14.77;56.20;97998.19;5149477;27;20039;-57
2021/12/21 05:57:31;;;;;;;2.72;2.20;;;;;;;-14.82;56.80;97993.47;5147483;27;20534;-58
2021/12/21 05:59:57;;;;;;;2.85;2.03;;;;;;;-14.77;56.20;97996.47;5147956;27;20047;-58
2021/12/21 06:02:23;;;;;;;1.92;1.80;;;;;;;-14.82;56.73;97998.56;5148173;27;20041;-58
2021/12/21 06:04:49;;;;;;;3.90;2.05;;;;;;;-14.73;57.21;97997.06;5148136;27;20038;-55
2021/12/21 06:07:15;;;;;;;3.05;2.33;;;;;;;-14.64;57.33;97991.31;5148470;27;20428;-59
2021/12/21 06:09:43;;;;;;;2.88;2.00;;;;;;;-14.44;56.97;97993.16;5149425;27;20597;-57
2021/12/21 06:12:27;;;;;;;2.95;1.85;;;;;;;-14.44;56.55;97995.69;5148089;27;20034;-58
2021/12/21 06:23:06;;;;;;;3.97;2.80;;;;;;;-14.55;57.37;98005.88;5148175;27;20530;-57
2021/12/21 06:25:52;;;;;;;2.35;1.65;;;;;;;-14.57;57.29;98009.47;5129970;27;20125;-58
2021/12/21 06:28:18;;;;;;;3.63;2.10;;;;;;;-14.68;56.83;98026.31;5149894;27;20141;-56
2021/12/21 06:30:44;;;;;;;3.22;2.10;;;;;;;-14.52;58.11;98018.38;5147575;27;20601;-54
2021/12/21 06:33:10;;;;;;;3.63;1.70;;;;;;;-14.66;57.52;98016.03;5147839;27;20051;-57
2021/12/21 06:35:37;;;;;;;2.60;1.98;;;;;;;-14.50;57.01;98015.66;5145023;27;20407;-55
2021/12/21 06:38:04;;;;;;;2.03;1.48;;;;;;;-14.43;57.16;98014.31;5146338;27;20039;-54
2021/12/21 06:40:31;;;;;;;2.55;1.90;;;;;;;-14.53;56.91;98021.03;5147984;27;20500;-55
2021/12/21 06:43:00;;;;;;;3.97;1.45;;;;;;;-14.75;57.20;98022.59;5146745;27;20575;-55
2021/12/21 06:53:36;;;;;;;5.43;2.45;;;;;;;-14.48;56.49;98035.00;5144910;27;20053;-57
2021/12/21 06:56:03;;;;;;;3.75;2.05;;;;;;;-14.47;57.10;98031.56;5148379;27;20045;-55
2021/12/21 06:58:29;;;;;;;1.83;1.38;;;;;;;-14.57;56.42;98037.44;5149174;27;20500;-54
2021/12/21 07:00:57;;;;;;;1.70;1.60;;;;;;;-14.59;57.14;98035.00;5129661;27;20050;-53
2021/12/21 07:03:24;;;;;;;1.95;1.85;;;;;;;-14.68;56.51;98038.22;5130741;27;20058;-53
2021/12/21 07:05:50;;;;;;;3.33;1.77;;;;;;;-14.69;57.43;98042.50;5146429;27;20219;-56
2021/12/21 07:08:22;;;;;;;1.92;1.48;;;;;;;-14.63;56.47;98037.91;5150703;27;20111;-57
2021/12/21 07:11:10;;;;;;;4.85;2.30;;;;;;;-14.38;57.28;98042.78;5130552;27;20392;-55
2021/12/21 07:19:07;;;;;;;2.80;1.85;;;;;;;-14.55;56.25;98058.50;5112872;28;20042;-57
2021/12/21 07:21:34;;;;;;;4.15;2.28;;;;;;;-14.37;56.79;98056.31;5109048;28;20639;-56
2021/12/21 07:24:01;;;;;;;2.13;1.92;;;;;;;-14.35;55.32;98060.38;5080629;27;20095;-57
2021/12/21 07:26:28;;;;;;;4.75;2.22;;;;;;;-14.30;55.79;98052.38;5096363;27;20035;-57
2021/12/21 07:28:54;;;;;;;2.88;1.85;;;;;;;-14.39;55.65;98046.22;5130255;27;20501;-58
2021/12/21 07:31:20;;;;;;;4.68;2.47;;;;;;;-14.08;55.59;98057.50;5132243;27;20043;-56
2021/12/21 07:33:46;;;;;;;2.85;1.88;;;;;;;-14.09;54.79;98057.59;5135072;27;20042;-56
2021/12/21 07:36:12;;;;;;;2.13;1.50;;;;;;;-14.15;54.21;98055.53;5151458;27;20416;-56
2021/12/21 07:38:38;;;;;;;7.20;2.75;;;;;;;-14.13;53.54;98071.50;5150940;27;20468;-56
2021/12/21 07:41:07;;;;;;;3.42;1.70;;;;;;;-14.32;55.14;98067.78;5099770;27;20054;-57
2021/12/21 07:43:33;;;;;;;2.22;1.55;;;;;;;-14.47;54.62;98072.25;5150009;27;20047;-58
2021/12/21 07:45:59;;;;;;;1.80;1.70;;;;;;;-14.35;54.97;98067.16;5152111;27;20069;-57
2021/12/21 07:48:25;;;;;;;2.60;1.80;;;;;;;-14.29;53.34;98071.81;5151366;27;20311;-59
2021/12/21 07:50:52;;;;;;;1.55;1.45;;;;;;;-14.48;53.40;98080.81;5150818;27;20536;-57
2021/12/21 07:53:19;;;;;;;2.17;1.92;;;;;;;-14.50;54.43;98072.50;5152516;27;20046;-58
2021/12/21 07:55:45;;;;;;;5.25;2.03;;;;;;;-14.53;53.56;98067.63;5151078;27;20122;-60
2021/12/21 07:58:12;;;;;;;3.58;1.77;;;;;;;-14.53;53.56;98066.81;5151842;27;20066;-58
2021/12/21 08:00:38;;;;;;;2.08;1.83;;;;;;;-14.50;54.19;98082.66;5152053;27;20117;-57
2021/12/21 08:03:05;;;;;;;3.53;2.10;;;;;;;-14.46;54.36;98075.63;5150710;27;20455;-59
2021/12/21 08:05:33;;;;;;;1.60;1.50;;;;;;;-14.68;54.91;98087.38;5151340;27;20052;-59
2021/12/21 08:08:11;;;;;;;1.60;1.50;;;;;;;-14.44;55.16;98078.84;5152622;27;20070;-56
2021/12/21 08:11:07;;;;;;;1.65;1.55;;;;;;;-14.22;53.90;98095.91;5132562;27;20039;-55
2021/12/21 08:13:34;;;;;;;2.72;1.80;;;;;;;-14.00;55.56;98093.41;5131427;27;20110;-56
2021/12/21 08:15:59;;;;;;;3.03;1.63;;;;;;;-13.65;56.03;98095.00;5150529;27;20103;-60
2021/12/21 08:18:25;;;;;;;5.55;2.40;;;;;;;-13.44;55.28;98092.56;5152375;27;20042;-56
2021/12/21 08:20:52;;;;;;;2.67;1.80;;;;;;;-13.34;53.90;98095.22;5151907;27;20488;-59
2021/12/21 08:23:17;;;;;;;5.00;2.10;;;;;;;-13.44;53.35;98084.09;5152753;27;20057;-55
2021/12/21 08:25:43;;;;;;;3.28;1.70;;;;;;;-13.46;51.99;98088.50;5152821;27;20039;-54
2021/12/21 08:28:10;;;;;;;2.33;2.00;;;;;;;-13.55;53.38;98084.94;5152933;27;20039;-60
2021/12/21 08:30:36;;;;;;;4.60;2.05;;;;;;;-13.64;53.57;98085.63;5150908;27;20073;-53
2021/12/21 08:33:03;;;;;;;4.63;2.17;;;;;;;-13.55;55.74;98080.66;5152888;27;20043;-55
2021/12/21 08:35:30;;;;;;;4.45;2.35;;;;;;;-13.38;55.37;98083.63;5149943;27;20045;-55
2021/12/21 08:38:07;;;;;;;7.18;2.05;;;;;;;-13.39;53.10;98084.56;5151902;27;20041;-56
2021/12/21 08:40:39;;;;;;;7.03;3.08;;;;;;;-13.31;54.54;98083.03;5151718;27;20480;-54
2021/12/21 08:43:08;;;;;;;3.00;1.60;;;;;;;-13.31;53.50;98085.59;5151145;27;20474;-52
2021/12/21 08:45:36;;;;;;;3.28;2.30;;;;;;;-13.26;53.18;98082.69;5150181;27;20038;-58
2021/12/21 08:48:02;;;;;;;5.38;2.55;;;;;;;-13.22;53.43;98084.03;5134453;27;20450;-56
2021/12/21 08:50:29;;;;;;;3.58;1.83;;;;;;;-13.27;52.85;98068.31;5148370;27;20043;-53
2021/12/21 08:52:54;;;;;;;3.25;2.22;;;;;;;-13.38;53.41;98074.25;5150572;27;20556;-54
2021/12/21 08:55:20;;;;;;;4.72;2.50;;;;;;;-13.32;53.62;98072.97;5150472;27;20047;-55
2021/12/21 08:57:46;;;;;;;4.03;2.08;;;;;;;-13.41;53.21;98074.50;5149972;27;20066;-54
2021/12/21 09:00:12;;;;;;;3.03;2.42;;;;;;;-13.39;52.41;98082.81;5151386;27;20479;-54
2021/12/21 09:02:38;;;;;;;3.78;2.00;;;;;;;-13.29;53.02;98078.63;5152459;27;20053;-55
2021/12/21 09:05:14;;;;;;;6.45;2.53;;;;;;;-13.73;53.02;98074.41;5151697;27;20034;-54
2021/12/21 09:07:45;;;;;;;2.88;2.15;;;;;;;-13.73;54.15;98076.97;5151539;27;20073;-54
2021/12/21 09:10:13;;;;;;;3.80;2.33;;;;;;;-13.79;53.72;98087.63;5150025;27;20038;-55
2021/12/21 09:12:39;;;;;;;2.40;2.05;;;;;;;-13.96;54.64;98082.03;5151508;27;20058;-51
2021/12/21 09:15:07;;;;;;;4.07;1.92;;;;;;;-14.09;54.35;98077.97;5149595;27;20531;-55
2021/12/21 09:17:33;;;;;;;2.33;1.65;;;;;;;-14.05;53.96;98090.38;5151904;27;20049;-58
2021/12/21 09:19:58;;;;;;;3.47;2.20;;;;;;;-13.99;53.74;98091.66;5149250;27;20138;-57
2021/12/21 09:22:24;;;;;;;7.15;3.13;;;;;;;-13.86;53.50;98097.44;5150054;27;20820;-56
2021/12/21 09:24:51;;;;;;;3.03;2.25;;;;;;;-13.86;53.73;98097.44;5126269;27;20035;-51
2021/12/21 09:27:17;;;;;;;3.42;2.05;;;;;;;-13.84;52.97;98098.13;5152340;27;20171;-55
2021/12/21 09:29:44;;;;;;;5.97;2.10;;;;;;;-13.84;53.94;98098.13;5132685;27;20094;-59
2021/12/21 09:32:13;;;;;;;4.40;2.17;;;;;;;-13.71;54.39;98095.47;5150955;27;20500;-53
2021/12/21 09:34:40;;;;;;;3.55;2.28;;;;;;;-13.62;53.85;98102.41;5150379;27;20133;-54
2021/12/21 09:37:08;;;;;;;2.67;2.47;;;;;;;-13.55;53.76;98095.94;5152249;27;20049;-54
2021/12/21 09:39:34;;;;;;;5.68;2.92;;;;;;;-13.57;53.25;98095.22;5113896;27;20069;-53
2021/12/21 09:42:00;;;;;;;9.98;3.13;;;;;;;-13.39;54.86;98093.00;5132948;27;20046;-50
2021/12/21 09:44:26;;;;;;;3.28;2.15;;;;;;;-13.25;53.54;98102.16;5149547;27;20043;-56
2021/12/21 09:46:52;;;;;;;4.07;2.30;;;;;;;-13.15;51.86;98110.66;5148028;27;20039;-56
2021/12/21 09:49:18;;;;;;;3.78;2.13;;;;;;;-13.13;53.37;98100.34;5150946;27;20293;-55
2021/12/21 09:51:44;;;;;;;5.07;2.53;;;;;;;-13.16;53.07;98098.84;5150248;27;20098;-56
2021/12/21 09:54:10;;;;;;;5.35;2.40;;;;;;;-13.10;52.67;98106.03;5149988;27;20427;-56
2021/12/21 09:56:36;;;;;;;5.05;2.80;;;;;;;-13.19;52.45;98106.75;5150214;27;20038;-56
2021/12/21 09:59:02;;;;;;;2.88;2.33;;;;;;;-13.05;52.75;98106.47;5150788;27;20086;-54
2021/12/21 10:01:28;;;;;;;5.18;2.45;;;;;;;-13.11;52.71;98096.75;5150416;27;20050;-54
2021/12/21 10:03:54;;;;;;;3.88;2.65;;;;;;;-13.16;52.77;98106.50;5133873;27;20240;-55
2021/12/21 10:06:20;;;;;;;5.65;3.50;;;;;;;-13.09;52.71;98114.47;5149053;27;20415;-57
2021/12/21 10:08:46;;;;;;;5.35;2.85;;;;;;;-13.26;53.14;98115.84;5147930;27;20461;-58
2021/12/21 10:11:23;;;;;;;8.00;3.15;;;;;;;-13.20;53.11;98117.06;5150940;27;20050;-54
2021/12/21 10:13:49;;;;;;;5.38;2.35;;;;;;;-13.34;53.02;98113.88;5147253;27;20073;-56
2021/12/21 10:16:20;;;;;;;2.15;1.85;;;;;;;-13.38;52.06;98121.84;5149414;27;20126;-58
2021/12/21 10:18:46;;;;;;;4.20;2.42;;;;;;;-13.38;52.00;98109.94;5147344;27;20042;-57
2021/12/21 10:21:15;;;;;;;5.75;2.85;;;;;;;-13.19;53.13;98113.59;5146617;27;20046;-56
2021/12/21 10:23:43;;;;;;;4.25;2.67;;;;;;;-12.98;52.29;98117.00;5149544;27;20109;-58
2021/12/21 10:26:12;;;;;;;7.07;2.38;;;;;;;-13.19;52.01;98105.94;5149343;27;20051;-55
2021/12/21 10:28:42;;;;;;;4.30;2.42;;;;;;;-13.15;52.56;98120.06;5148711;27;20038;-58
2021/12/21 10:31:15;;;;;;;2.40;2.20;;;;;;;-13.15;53.10;98118.31;5150058;27;20049;-56
2021/12/21 10:33:45;;;;;;;3.92;1.80;;;;;;;-13.31;51.88;98121.28;5148633;27;20543;-54
2021/12/21 10:36:11;;;;;;;4.50;2.35;;;;;;;-13.18;53.04;98125.41;5132298;27;20095;-57
2021/12/21 10:38:48;;;;;;;6.97;3.63;;;;;;;-13.28;52.21;98123.59;5152272;27;20129;-58
2021/12/21 10:41:20;;;;;;;5.03;2.33;;;;;;;-13.44;54.50;98130.81;5150448;27;20102;-57
2021/12/21 10:43:59;;;;;;;4.45;2.38;;;;;;;-13.61;53.85;98131.28;5152349;27;20041;-57
2021/12/21 10:46:27;;;;;;;4.27;2.43;;;;;;;-13.64;53.79;98127.22;5152433;27;20045;-59
2021/12/21 10:49:10;;;;;;;3.28;2.15;;;;;;;-13.66;53.93;98112.97;5152573;27;20280;-56
2021/12/21 10:51:49;;;;;;;8.70;2.78;;;;;;;-13.47;54.67;98125.91;5150854;27;20082;-55
2021/12/21 10:54:28;;;;;;;3.83;2.00;;;;;;;-13.61;52.99;98137.19;5151435;27;20121;-57
2021/12/21 10:57:05;;;;;;;7.32;2.63;;;;;;;-13.65;54.02;98133.22;5152399;27;20096;-55
2021/12/21 10:59:32;;;;;;;4.03;2.17;;;;;;;-13.70;53.37;98140.44;5148133;27;20069;-55
2021/12/21 11:02:07;;;;;;;3.35;3.05;;;;;;;-13.71;52.92;98138.78;5135296;27;20045;-55
2021/12/21 11:04:38;;;;;;;4.97;2.65;;;;;;;-13.64;53.57;98134.88;5147252;27;20101;-58
2021/12/21 11:07:19;;;;;;;4.10;2.13;;;;;;;-13.59;53.08;98147.25;5153998;27;20480;-54
2021/12/21 11:10:12;;;;;;;3.50;2.28;;;;;;;-13.81;54.23;98138.66;5152971;27;20480;-54
2021/12/21 11:12:45;;;;;;;2.88;2.42;;;;;;;-13.99;53.60;98142.59;5154266;27;20039;-55
2021/12/21 11:15:17;;;;;;;4.10;2.20;;;;;;;-13.79;53.81;98148.75;5155166;27;20288;-55
2021/12/21 11:17:43;;;;;;;3.92;2.60;;;;;;;-13.71;54.98;98148.97;5147972;27;20698;-54
2021/12/21 11:20:11;;;;;;;4.13;2.13;;;;;;;-13.79;53.37;98153.84;5155104;27;20045;-55
2021/12/21 11:22:39;;;;;;;3.63;2.40;;;;;;;-13.98;54.37;98152.66;5132981;27;20051;-56
2021/12/21 11:25:06;;;;;;;2.75;1.52;;;;;;;-14.20;54.53;98137.34;5151607;27;20043;-58
2021/12/21 11:27:34;;;;;;;4.65;2.92;;;;;;;-14.12;54.48;98152.03;5152304;27;20272;-54
2021/12/21 11:30:04;;;;;;;6.20;2.60;;;;;;;-14.13;54.85;98151.25;5135374;27;20539;-54
2021/12/21 11:32:32;;;;;;;4.60;2.35;;;;;;;-14.20;54.67;98147.53;5149312;27;20038;-56
2021/12/21 11:37:50;;;;;;;8.43;3.17;;;;;;;-14.40;56.76;98154.06;5110886;27;20492;-57
2021/12/21 11:40:21;;;;;;;5.72;2.13;;;;;;;-14.39;55.84;98159.97;5134398;27;20050;-52
2021/12/21 11:43:12;;;;;;;3.70;2.20;;;;;;;-14.48;55.45;98166.53;5151709;27;20038;-55
2021/12/21 11:45:48;;;;;;;4.22;2.30;;;;;;;-14.52;55.59;98160.88;5124527;27;20090;-53
2021/12/21 11:48:44;;;;;;;2.85;1.80;;;;;;;-14.48;56.37;98163.97;5133166;27;20038;-56
2021/12/21 11:51:12;;;;;;;3.00;2.20;;;;;;;-14.59;56.21;98163.97;5144919;27;20053;-55
2021/12/21 11:53:39;;;;;;;3.67;1.95;;;;;;;-14.69;56.26;98171.44;5153024;27;20441;-54
2021/12/21 11:56:06;;;;;;;5.05;2.42;;;;;;;-14.84;56.59;98168.25;5153004;27;20039;-56
2021/12/21 11:58:38;;;;;;;3.90;2.83;;;;;;;-14.84;56.46;98172.53;5150407;27;20046;-58
2021/12/21 12:01:12;;;;;;;3.58;1.50;;;;;;;-15.01;56.52;98171.97;5134285;27;20099;-57
2021/12/21 12:03:39;;;;;;;5.63;2.28;;;;;;;-14.97;56.95;98175.94;5153737;27;20244;-55
2021/12/21 12:06:45;;;;;;;2.17;1.75;;;;;;;-15.03;57.73;98173.78;5150901;27;20469;-55
2021/12/21 12:09:26;;;;;;;8.30;3.47;;;;;;;-14.80;57.56;98186.63;5096797;27;20140;-54
2021/12/21 12:12:04;;;;;;;5.63;2.42;;;;;;;-14.69;57.87;98189.25;5106033;27;20047;-50
2021/12/21 12:14:31;;;;;;;1.80;1.70;;;;;;;-14.90;57.97;98197.47;5129826;27;20043;-52
2021/12/21 12:17:01;;;;;;;4.75;2.53;;;;;;;-14.93;57.56;98194.31;5078695;27;20138;-54
2021/12/21 12:19:30;;;;;;;;;;;;;;;-14.73;57.53;98198.84;5130271;27;20126;-58
2021/12/21 12:22:03;;;;;;;11.20;3.08;;;;;;;-14.70;57.65;98201.16;5132125;27;20339;-56
2021/12/21 12:24:44;;;;;;;5.45;3.28;;;;;;;-14.66;57.80;98200.00;5151231;27;20547;-55
2021/12/21 12:27:21;;;;;;;5.05;2.55;;;;;;;-14.83;56.55;98200.38;5153057;27;20404;-56
2021/12/21 12:29:57;;;;;;;5.93;3.30;;;;;;;-14.76;57.51;98206.69;5151842;27;20039;-57
2021/12/21 12:32:35;;;;;;;3.53;2.50;;;;;;;-14.89;58.34;98208.44;5150628;27;20038;-56
2021/12/21 12:35:07;;;;;;;6.38;2.85;;;;;;;-14.90;57.76;98214.44;5150813;27;20039;-57
2021/12/21 12:37:35;;;;;;;3.95;2.30;;;;;;;-14.91;58.27;98218.72;5151246;27;20415;-56
2021/12/21 12:40:11;;;;;;;4.15;2.30;;;;;;;-14.91;58.28;98222.97;5148533;27;20047;-62
2021/12/21 12:42:37;;;;;;;5.60;2.72;;;;;;;-14.81;58.13;98230.81;5151547;27;20062;-57
2021/12/21 12:45:11;;;;;;;8.07;2.50;;;;;;;-14.75;57.97;98232.91;5148764;27;20039;-56
2021/12/21 12:47:45;;;;;;;4.65;2.63;;;;;;;-14.86;57.20;98240.47;5130071;27;20038;-55
2021/12/21 12:50:21;;;;;;;1.95;1.85;;;;;;;-15.08;57.88;98243.69;5148602;27;20512;-56
2021/12/21 12:53:00;;;;;;;2.05;1.70;;;;;;;-15.03;57.92;98237.34;5131909;27;20142;-56
2021/12/21 12:55:41;;;;;;;3.55;2.47;;;;;;;-15.11;57.58;98232.81;5146850;27;20050;-54
2021/12/21 12:58:19;;;;;;;2.55;2.25;;;;;;;-15.13;58.22;98244.00;5150181;27;20453;-55